Terminal Aerodrome Forecast
Issued by NWS

Home | Current Version | Previous Version | Text Only | Print | Product List | Glossary On
Versions: 1 2 3 4 5 6 7 8 9 10 11 12 13 14 15 16 17 18 19 20 21 22
000
FTUS41 KBGM 222300
TAFELM
TAF
KELM 222340Z 2300/2324 VRB03KT P6SM SCT025 OVC035 WS020/17035KT
      TEMPO 2302/2306 -DZ OVC025
     FM230600 VRB03KT P6SM OVC015 WS020/17035KT
     FM231400 15008KT P6SM OVC015=

USA.gov is the U.S. government's official web portal to all federal, state and local government web resources and services.